Aérodrome :
LOGIN :

S'inscrire | Disclaimer

   EN    FR    IT 

 










Légende :    VFR   VFR Marginal   IFR   IFR Intensif   IFR Très Intensif
Visi : 
Plafond : 
>= 8 km
>= 3000ft
5 à 8 km
1000 à 3000 ft
1500m à 5 km
500 à 1000 ft
800 à 1500m
200 à 500 ft
< 800m
< 200 ft
Symboles :   Orages  Brouillard  Fortes neiges  Fortes précipitations  Vent > 20 kt
SIGMETs :   Divers  Orages  Givrage  Turbulence  Onde Orograph.  Cendres Volcan.






- Altitude de l'aérodrome : 1966 ft
- Code IATA : SGE


EDGS - Siegerland

DERNIER METAR :
  • 300820Z 08007KT 040V120 CAVOK M02/M14 Q1028

METARs EXPIRÉS :
  • 300750Z 04007KT 020V080 CAVOK M02/M12 Q1028
  • 300720Z 06007KT 020V090 CAVOK M03/M11 Q1027
  • 300650Z 04006KT CAVOK M03/M12 Q1027
  • 300620Z 01005KT 340V040 CAVOK M04/M10 Q1027
  • 300550Z 36005KT 340V040 CAVOK M06/M11 Q1027

TAF TAF EDGS
Valide du 30 à 09h jusqu'au 30 à 18h UTC


300800Z 3009/3018 36006KT CAVOK



MET'MAP, la Météo Aéronautique d'un coup d'oeil ! - Copyright ORBIFLY Décembre 2007 - Disclaimer

ORBIFLY MET'MAP TEAM :

Programmation & Développement : Alexandra Zaïnal
Sur une idée originale de : Baudouin d'Aumeries
Assistance à la programmation : Marc-Olivier Méhu
Soutien technique & logistique : Manuel Goepfert

Contact : metmap@orbifly.com




SOURCES & CREDITS :

   NOAA